Time;durP1;ratioP1;P1;durP2;ratioP2;P2;SDS_P1;SDS_P2;PMS_P1;PMS_P2;Temp;Humidity;BMP_temperature;BMP_pressure;BME280_temperature;BME280_humidity;BME280_pressure;Samples;Min_cycle;Max_cycle;Signal;HPM_P1;HPM_P2
2021/03/14 00:01:13;;;;;;;14.40;7.57;;;282.10;1766.40;;;;;;5092039;28;20028;-65
2021/03/14 00:03:39;;;;;;;12.00;6.80;;;282.20;1766.40;;;;;;5084741;28;20391;-63
2021/03/14 00:06:05;;;;;;;12.25;7.57;;;282.10;1766.40;;;;;;5072005;28;20056;-63
2021/03/14 00:08:31;;;;;;;12.73;6.40;;;282.10;1766.40;;;;;;5072090;28;20031;-64
2021/03/14 00:10:59;;;;;;;13.43;6.82;;;282.10;1792.00;;;;;;5072508;28;20021;-64
2021/03/14 00:13:31;;;;;;;15.73;8.65;;;282.10;1766.40;;;;;;5070084;28;20082;-78
2021/03/14 00:15:57;;;;;;;11.45;6.25;;;282.10;1843.20;;;;;;5071039;28;20120;-78
2021/03/14 00:18:31;;;;;;;14.60;6.65;;;282.10;1843.20;;;;;;5082676;28;20020;-75
2021/03/14 00:20:58;;;;;;;13.07;7.10;;;282.20;1817.60;;;;;;5073919;28;20139;-71
2021/03/14 00:23:26;;;;;;;9.90;6.30;;;282.20;1817.60;;;;;;5071712;28;20056;-75
2021/03/14 00:25:53;;;;;;;12.27;6.75;;;282.20;1766.40;;;;;;5072176;28;20417;-70
2021/03/14 00:28:19;;;;;;;13.30;7.25;;;282.20;1792.00;;;;;;5085663;28;20028;-70
2021/03/14 00:30:45;;;;;;;16.25;7.78;;;282.30;1766.40;;;;;;5059818;28;20035;-71
2021/03/14 00:33:11;;;;;;;14.10;7.30;;;282.40;1766.40;;;;;;5091554;28;20028;-73
2021/03/14 00:35:37;;;;;;;13.13;7.53;;;282.40;1766.40;;;;;;5072708;28;20024;-73
2021/03/14 00:38:03;;;;;;;11.88;7.43;;;282.40;1766.40;;;;;;5083618;28;20031;-75
2021/03/14 00:40:29;;;;;;;13.15;6.85;;;282.40;1740.80;;;;;;5088644;28;20367;-77
2021/03/14 00:42:58;;;;;;;10.50;7.57;;;282.40;1740.80;;;;;;5071302;28;20562;-73
2021/03/14 00:45:23;;;;;;;13.50;7.30;;;282.40;1740.80;;;;;;5071796;28;20107;-73
2021/03/14 00:47:49;;;;;;;11.52;7.30;;;282.40;1740.80;;;;;;5072301;28;20550;-74
2021/03/14 00:50:16;;;;;;;14.05;6.88;;;282.50;1715.20;;;;;;5084795;28;20442;-73
2021/03/14 00:52:41;;;;;;;11.13;5.95;;;307.20;1715.20;;;;;;5068534;28;20122;-73
2021/03/14 00:55:07;;;;;;;14.90;6.57;;;307.20;1740.80;;;;;;5083464;28;20131;-74
2021/03/14 00:57:33;;;;;;;10.10;5.93;;;307.20;1715.20;;;;;;5077465;28;20020;-62
2021/03/14 00:59:59;;;;;;;10.50;5.78;;;307.20;1664.00;;;;;;5074388;28;20034;-62
2021/03/14 01:02:25;;;;;;;8.80;5.22;;;307.20;1664.00;;;;;;5074820;28;20115;-63
2021/03/14 01:04:50;;;;;;;12.57;6.40;;;282.50;1638.40;;;;;;5074035;28;20344;-63
2021/03/14 01:07:16;;;;;;;9.43;5.07;;;282.50;1638.40;;;;;;5074714;28;20028;-59
2021/03/14 01:09:42;;;;;;;8.98;5.72;;;282.40;1638.40;;;;;;5074431;28;20025;-63
2021/03/14 01:12:08;;;;;;;10.52;5.55;;;282.40;1638.40;;;;;;5074288;28;20025;-62
2021/03/14 01:14:34;;;;;;;12.30;7.22;;;282.40;1664.00;;;;;;5073813;28;20017;-63
2021/03/14 01:17:00;;;;;;;12.10;5.75;;;282.30;1664.00;;;;;;5074224;28;20532;-61
2021/03/14 01:19:26;;;;;;;9.65;5.75;;;282.30;1664.00;;;;;;5071451;28;20115;-59
2021/03/14 01:21:52;;;;;;;12.88;5.70;;;282.30;1664.00;;;;;;5061853;28;20036;-62
2021/03/14 01:24:17;;;;;;;11.40;5.88;;;282.20;1664.00;;;;;;5084948;28;20024;-62
2021/03/14 01:26:43;;;;;;;9.55;5.88;;;282.20;1664.00;;;;;;5078611;28;20027;-62
2021/03/14 01:29:09;;;;;;;12.43;6.50;;;282.00;1689.60;;;;;;5084147;28;20503;-60
2021/03/14 01:31:34;;;;;;;10.38;5.65;;;282.10;1689.60;;;;;;5087212;28;20036;-60
2021/03/14 01:34:00;;;;;;;9.98;5.63;;;282.10;1689.60;;;;;;5062496;28;20389;-61
2021/03/14 01:36:26;;;;;;;9.98;5.43;;;282.10;1689.60;;;;;;5079819;28;20103;-62
2021/03/14 01:38:51;;;;;;;11.57;5.82;;;282.10;1689.60;;;;;;5086979;28;20367;-62
2021/03/14 01:41:17;;;;;;;7.75;4.90;;;282.00;1689.60;;;;;;5084666;28;20064;-60
2021/03/14 01:43:43;;;;;;;9.77;5.20;;;282.00;1689.60;;;;;;5094748;28;20032;-59
2021/03/14 01:46:09;;;;;;;7.95;4.80;;;281.90;1689.60;;;;;;5094747;28;20149;-63
2021/03/14 01:48:36;;;;;;;8.35;5.50;;;281.90;1689.60;;;;;;5095051;28;20054;-60
2021/03/14 01:51:04;;;;;;;13.85;6.18;;;282.00;1689.60;;;;;;5094474;28;20041;-62
2021/03/14 01:53:31;;;;;;;12.50;5.10;;;281.90;1689.60;;;;;;5094702;28;20055;-61
2021/03/14 01:55:57;;;;;;;10.15;5.07;;;281.90;1689.60;;;;;;5094619;28;20016;-60
2021/03/14 01:58:24;;;;;;;8.68;4.93;;;281.80;1689.60;;;;;;5075908;28;20440;-61
2021/03/14 02:00:52;;;;;;;7.60;4.25;;;281.80;1689.60;;;;;;5094703;28;20078;-62
2021/03/14 02:03:19;;;;;;;6.45;4.30;;;281.90;1664.00;;;;;;5094381;28;20491;-60
2021/03/14 02:05:45;;;;;;;7.35;3.90;;;281.90;1664.00;;;;;;5094605;28;20028;-59
2021/03/14 02:08:11;;;;;;;8.55;4.30;;;281.90;1664.00;;;;;;5093355;28;20038;-60
2021/03/14 02:10:37;;;;;;;5.47;4.10;;;282.00;1638.40;;;;;;5094264;28;20025;-62
2021/03/14 02:13:11;;;;;;;6.40;4.72;;;282.00;1638.40;;;;;;5078927;28;20031;-61
2021/03/14 02:15:43;;;;;;;9.43;4.82;;;281.90;1638.40;;;;;;5072952;28;20477;-61
2021/03/14 02:18:12;;;;;;;7.22;3.60;;;282.00;1638.40;;;;;;5073437;28;20038;-60
2021/03/14 02:20:38;;;;;;;6.10;3.85;;;282.00;1638.40;;;;;;5073060;28;20112;-63
2021/03/14 02:23:16;;;;;;;5.78;3.88;;;282.10;1612.80;;;;;;5073551;28;20077;-61
2021/03/14 02:25:52;;;;;;;6.35;4.03;;;282.00;1638.40;;;;;;5073207;28;20028;-63
2021/03/14 02:28:19;;;;;;;6.90;4.03;;;282.00;1612.80;;;;;;5072934;28;20025;-62
2021/03/14 02:30:46;;;;;;;6.97;3.60;;;282.00;1612.80;;;;;;5072941;28;20536;-61
2021/03/14 02:33:16;;;;;;;6.38;3.75;;;282.00;1612.80;;;;;;5073135;28;20375;-60
2021/03/14 02:35:43;;;;;;;6.88;3.47;;;282.00;1612.80;;;;;;5072785;28;20016;-63
2021/03/14 02:38:10;;;;;;;6.53;3.80;;;282.00;1638.40;;;;;;5072938;28;20025;-63
2021/03/14 02:40:36;;;;;;;7.13;4.10;;;282.10;1612.80;;;;;;5072477;28;20024;-64
2021/03/14 02:43:03;;;;;;;5.53;3.42;;;282.10;1587.20;;;;;;5071994;28;20037;-63
2021/03/14 02:45:30;;;;;;;5.15;3.38;;;282.30;1587.20;;;;;;5053188;28;20372;-63
2021/03/14 02:47:57;;;;;;;6.28;3.40;;;282.40;1561.60;;;;;;5072175;28;20482;-60
2021/03/14 02:50:24;;;;;;;6.75;3.38;;;282.50;1536.00;;;;;;5071800;28;20031;-60
2021/03/14 02:52:50;;;;;;;5.30;3.33;;;307.20;1561.60;;;;;;5071832;28;20062;-63
2021/03/14 02:55:20;;;;;;;5.47;3.58;;;307.20;1536.00;;;;;;5071911;28;20083;-61
2021/03/14 02:57:47;;;;;;;4.95;3.13;;;307.20;1536.00;;;;;;5072732;28;20025;-62
2021/03/14 03:00:16;;;;;;;7.10;3.17;;;307.30;1536.00;;;;;;5072837;28;20373;-64
2021/03/14 03:02:48;;;;;;;7.50;3.10;;;307.40;1536.00;;;;;;5072627;28;20075;-63
2021/03/14 03:05:16;;;;;;;4.10;2.60;;;307.40;1510.40;;;;;;5072943;28;20020;-63
2021/03/14 03:07:47;;;;;;;4.13;2.92;;;307.50;1510.40;;;;;;5072228;28;20020;-62
2021/03/14 03:10:14;;;;;;;6.57;3.47;;;307.50;1510.40;;;;;;5072757;28;20016;-62
2021/03/14 03:12:40;;;;;;;4.75;2.65;;;307.60;1484.80;;;;;;5072977;28;20017;-64
2021/03/14 03:15:08;;;;;;;4.78;2.92;;;307.60;1510.40;;;;;;5072746;28;20521;-63
2021/03/14 03:17:34;;;;;;;6.40;2.67;;;307.60;1484.80;;;;;;5072470;28;20024;-64
2021/03/14 03:20:01;;;;;;;3.15;2.70;;;307.60;1484.80;;;;;;5071739;28;20052;-62
2021/03/14 03:22:27;;;;;;;5.32;2.63;;;307.50;1510.40;;;;;;5072092;28;20041;-62
2021/03/14 03:24:53;;;;;;;4.00;2.90;;;307.50;1510.40;;;;;;5072172;28;20021;-62
2021/03/14 03:27:19;;;;;;;6.45;2.65;;;307.60;1484.80;;;;;;5072604;28;20025;-65
2021/03/14 03:29:45;;;;;;;8.07;3.00;;;307.70;1484.80;;;;;;5072620;28;20096;-65
2021/03/14 03:32:11;;;;;;;4.03;2.78;;;307.80;1484.80;;;;;;5072566;28;20024;-63
2021/03/14 03:34:37;;;;;;;2.80;1.98;;;307.90;1459.20;;;;;;5072915;28;20383;-63
2021/03/14 03:37:03;;;;;;;3.97;2.42;;;307.90;1459.20;;;;;;5073066;28;20021;-62
2021/03/14 03:39:28;;;;;;;5.65;2.33;;;307.90;1459.20;;;;;;5072674;28;20035;-61
2021/03/14 03:42:11;;;;;;;5.88;2.75;;;308.00;1433.60;;;;;;5073491;28;20060;-63
2021/03/14 03:44:39;;;;;;;6.00;2.63;;;308.00;1433.60;;;;;;5072971;28;20036;-64
2021/03/14 03:47:08;;;;;;;3.50;2.22;;;308.00;1433.60;;;;;;5072459;28;20094;-63
2021/03/14 03:49:37;;;;;;;4.20;2.33;;;308.00;1433.60;;;;;;5072344;28;20127;-59
2021/03/14 03:52:03;;;;;;;4.15;2.40;;;308.00;1433.60;;;;;;5072251;28;20131;-62
2021/03/14 03:54:32;;;;;;;2.63;2.00;;;308.00;1433.60;;;;;;5072571;28;20028;-60
2021/03/14 03:57:00;;;;;;;4.93;2.42;;;308.10;1433.60;;;;;;5072244;28;20033;-62
2021/03/14 03:59:26;;;;;;;4.43;2.42;;;308.00;1459.20;;;;;;5072355;28;20034;-61
2021/03/14 04:01:53;;;;;;;4.18;2.38;;;308.10;1433.60;;;;;;5072056;28;20107;-63
2021/03/14 04:04:21;;;;;;;7.75;2.35;;;308.10;1433.60;;;;;;5092311;28;20027;-63
2021/03/14 04:06:51;;;;;;;4.88;2.90;;;308.10;1433.60;;;;;;5088541;28;20035;-65
2021/03/14 04:09:17;;;;;;;4.38;2.15;;;308.10;1433.60;;;;;;5077438;28;20527;-63
2021/03/14 04:11:44;;;;;;;3.28;2.30;;;308.10;1433.60;;;;;;5085806;28;20020;-63
2021/03/14 04:14:11;;;;;;;4.95;2.55;;;332.80;1433.60;;;;;;5072008;28;20024;-63
2021/03/14 04:16:39;;;;;;;5.13;2.40;;;308.10;1433.60;;;;;;5072989;28;20153;-62
2021/03/14 04:19:10;;;;;;;4.63;2.85;;;308.10;1433.60;;;;;;5074827;28;20073;-62
2021/03/14 04:21:38;;;;;;;5.22;2.38;;;308.00;1433.60;;;;;;5081409;28;20048;-62
2021/03/14 04:24:06;;;;;;;3.45;1.98;;;308.00;1433.60;;;;;;5071284;28;20457;-62
2021/03/14 04:26:32;;;;;;;3.58;2.25;;;308.00;1433.60;;;;;;5072442;28;20036;-62
2021/03/14 04:28:59;;;;;;;3.20;2.15;;;308.00;1433.60;;;;;;5071830;28;20024;-63
2021/03/14 04:31:26;;;;;;;3.05;2.15;;;308.00;1433.60;;;;;;5082628;28;20124;-64
2021/03/14 04:33:53;;;;;;;2.92;1.85;;;308.00;1433.60;;;;;;5096474;28;20020;-61
2021/03/14 04:36:21;;;;;;;4.90;2.30;;;307.90;1433.60;;;;;;5081806;28;20028;-63
2021/03/14 04:38:48;;;;;;;4.05;1.90;;;307.90;1433.60;;;;;;5085518;28;20021;-61
2021/03/14 04:41:16;;;;;;;2.80;2.17;;;308.00;1433.60;;;;;;5075362;28;20024;-61
2021/03/14 04:43:43;;;;;;;2.97;1.85;;;307.90;1433.60;;;;;;5075897;28;20493;-59
2021/03/14 04:46:12;;;;;;;6.15;2.70;;;307.90;1433.60;;;;;;5075389;28;20498;-59
2021/03/14 04:48:38;;;;;;;4.45;2.65;;;308.00;1433.60;;;;;;5075610;28;20033;-59
2021/03/14 04:51:05;;;;;;;5.35;2.72;;;308.00;1433.60;;;;;;5075536;28;20498;-64
2021/03/14 04:53:32;;;;;;;4.25;2.15;;;308.00;1433.60;;;;;;5075674;28;20050;-64
2021/03/14 04:55:59;;;;;;;4.15;2.60;;;308.00;1433.60;;;;;;5075535;28;20025;-64
2021/03/14 04:58:26;;;;;;;3.35;2.05;;;308.00;1433.60;;;;;;5075545;28;20031;-64
2021/03/14 05:00:52;;;;;;;4.45;2.65;;;308.00;1433.60;;;;;;5075537;28;20025;-60
2021/03/14 05:03:23;;;;;;;5.30;2.70;;;308.00;1433.60;;;;;;5075590;28;20033;-64
2021/03/14 05:05:50;;;;;;;3.72;2.65;;;308.10;1433.60;;;;;;5075019;28;20475;-64
2021/03/14 05:08:23;;;;;;;4.85;2.17;;;308.10;1433.60;;;;;;5076030;28;20043;-62
2021/03/14 05:10:51;;;;;;;2.88;1.70;;;308.10;1433.60;;;;;;5075055;28;20099;-62
2021/03/14 05:13:18;;;;;;;3.50;1.80;;;308.10;1433.60;;;;;;5073872;28;20467;-63
2021/03/14 05:15:48;;;;;;;3.30;1.95;;;332.80;1459.20;;;;;;5073809;28;20099;-63
2021/03/14 05:18:14;;;;;;;3.03;1.55;;;332.80;1433.60;;;;;;5074722;28;20013;-63
2021/03/14 05:20:40;;;;;;;2.47;1.90;;;332.90;1433.60;;;;;;5074765;28;20143;-63
2021/03/14 05:23:06;;;;;;;3.08;1.83;;;332.90;1433.60;;;;;;5074544;28;20035;-62
2021/03/14 05:25:33;;;;;;;3.17;2.08;;;332.90;1459.20;;;;;;5074245;28;20023;-63
2021/03/14 05:28:01;;;;;;;4.13;2.03;;;332.90;1433.60;;;;;;5074546;28;20086;-66
2021/03/14 05:30:30;;;;;;;4.20;1.80;;;333.00;1433.60;;;;;;5074047;28;20017;-61
2021/03/14 05:32:56;;;;;;;3.78;2.35;;;333.00;1433.60;;;;;;5074329;28;20036;-60
2021/03/14 05:35:26;;;;;;;5.07;2.45;;;333.00;1433.60;;;;;;5073755;28;20083;-62
2021/03/14 05:37:52;;;;;;;3.10;2.20;;;333.10;1433.60;;;;;;5074280;28;20056;-62
2021/03/14 05:40:19;;;;;;;4.78;2.25;;;333.20;1433.60;;;;;;5077674;28;20471;-59
2021/03/14 05:42:46;;;;;;;4.88;2.90;;;333.30;1408.00;;;;;;5078125;28;20199;-60
2021/03/14 05:45:12;;;;;;;3.03;2.33;;;333.30;1408.00;;;;;;5076294;28;20367;-62
2021/03/14 05:47:38;;;;;;;4.13;2.08;;;333.40;1382.40;;;;;;5075342;28;20036;-64
2021/03/14 05:50:10;;;;;;;3.92;2.50;;;333.40;1408.00;;;;;;5074441;28;20024;-59
2021/03/14 05:52:42;;;;;;;3.88;2.17;;;333.50;1382.40;;;;;;5074581;28;20403;-58
2021/03/14 05:55:28;;;;;;;6.07;2.40;;;333.70;1356.80;;;;;;5055261;28;20116;-62
2021/03/14 05:57:55;;;;;;;3.90;2.25;;;333.70;1356.80;;;;;;5074091;28;20398;-62
2021/03/14 06:00:27;;;;;;;5.25;2.28;;;333.70;1356.80;;;;;;5074541;28;20100;-61
2021/03/14 06:02:56;;;;;;;3.13;2.22;;;358.40;1382.40;;;;;;5074074;28;20116;-60
2021/03/14 06:05:23;;;;;;;3.60;1.60;;;358.40;1356.80;;;;;;5074390;28;20032;-62
2021/03/14 06:07:49;;;;;;;4.50;2.83;;;358.40;1356.80;;;;;;5074195;28;20032;-62
2021/03/14 06:10:16;;;;;;;3.72;1.80;;;358.40;1356.80;;;;;;5074190;28;20032;-60
2021/03/14 06:12:43;;;;;;;3.22;2.00;;;358.50;1356.80;;;;;;5056111;28;20032;-59
2021/03/14 06:15:10;;;;;;;5.53;2.40;;;358.60;1356.80;;;;;;5074027;28;20029;-62
2021/03/14 06:17:36;;;;;;;3.55;2.55;;;358.60;1331.20;;;;;;5078509;28;20533;-61
2021/03/14 06:20:07;;;;;;;3.75;2.05;;;358.70;1331.20;;;;;;5093164;28;20086;-61
2021/03/14 06:22:33;;;;;;;5.00;2.28;;;358.80;1331.20;;;;;;5093664;28;20036;-62
2021/03/14 06:24:59;;;;;;;4.80;2.20;;;358.80;1331.20;;;;;;5093079;28;20062;-63
2021/03/14 06:27:34;;;;;;;5.53;2.53;;;358.90;1305.60;;;;;;5093742;28;20055;-62
2021/03/14 06:30:01;;;;;;;4.65;2.33;;;359.10;1305.60;;;;;;5093362;28;20108;-60
2021/03/14 06:32:28;;;;;;;4.72;2.17;;;359.20;1305.60;;;;;;5074173;28;20504;-63
2021/03/14 06:35:15;;;;;;;4.15;2.55;;;359.30;1280.00;;;;;;5093503;28;20103;-62
2021/03/14 06:37:43;;;;;;;6.97;2.83;;;384.00;1254.40;;;;;;5074662;28;20490;-60
2021/03/14 06:40:14;;;;;;;6.72;3.35;;;384.10;1280.00;;;;;;5093033;28;20024;-61
2021/03/14 06:42:41;;;;;;;5.18;3.03;;;384.20;1280.00;;;;;;5093302;28;20090;-62
2021/03/14 06:45:08;;;;;;;8.60;3.22;;;384.20;1254.40;;;;;;5083230;28;20020;-61
2021/03/14 06:47:49;;;;;;;6.93;2.95;;;384.30;1228.80;;;;;;5087151;28;20023;-62
2021/03/14 06:50:30;;;;;;;5.38;2.85;;;384.40;1254.40;;;;;;5072475;28;20043;-62
2021/03/14 06:53:25;;;;;;;4.47;2.70;;;384.50;1228.80;;;;;;5090179;28;20401;-62
2021/03/14 06:55:52;;;;;;;4.70;2.75;;;384.60;1228.80;;;;;;4978168;28;20401;-62
2021/03/14 06:58:24;;;;;;;6.40;2.55;;;384.80;1203.20;;;;;;4991474;28;20030;-62
2021/03/14 07:01:14;;;;;;;4.35;2.50;;;409.60;1228.80;;;;;;4990978;28;20038;-62
2021/03/14 07:03:47;;;;;;;4.50;2.55;;;409.80;1203.20;;;;;;4991485;28;20400;-60
2021/03/14 07:06:18;;;;;;;5.55;2.60;;;409.90;1203.20;;;;;;4990295;28;20070;-62
2021/03/14 07:08:46;;;;;;;5.43;2.35;;;409.90;1228.80;;;;;;4978835;28;20531;-61
2021/03/14 07:11:31;;;;;;;4.82;2.28;;;409.90;1203.20;;;;;;4991360;28;20074;-63
2021/03/14 07:13:57;;;;;;;4.35;2.70;;;409.90;1228.80;;;;;;4991505;28;20045;-60
2021/03/14 07:16:41;;;;;;;3.60;2.47;;;409.80;1203.20;;;;;;4991862;28;20026;-63
2021/03/14 07:19:08;;;;;;;4.88;2.53;;;409.90;1203.20;;;;;;4991968;28;20501;-64
2021/03/14 07:21:34;;;;;;;5.07;2.78;;;409.90;1203.20;;;;;;4991092;28;20038;-64
2021/03/14 07:23:59;;;;;;;5.35;2.72;;;409.90;1203.20;;;;;;4991484;28;20601;-61
2021/03/14 07:26:42;;;;;;;4.20;2.80;;;410.00;1203.20;;;;;;4991348;28;20069;-60
2021/03/14 07:29:08;;;;;;;4.80;2.60;;;410.10;1203.20;;;;;;4991389;28;20062;-62
2021/03/14 07:31:35;;;;;;;4.53;2.70;;;410.10;1203.20;;;;;;5014332;28;20036;-62
2021/03/14 07:34:03;;;;;;;5.93;3.05;;;410.20;1177.60;;;;;;5074612;28;20036;-62
2021/03/14 07:36:29;;;;;;;4.32;2.47;;;410.20;1177.60;;;;;;5092992;28;20029;-62
2021/03/14 07:38:56;;;;;;;5.10;2.50;;;410.20;1203.20;;;;;;5074303;28;20548;-63
2021/03/14 07:41:25;;;;;;;7.80;3.20;;;410.30;1177.60;;;;;;5071382;28;20031;-63
2021/03/14 07:43:52;;;;;;;3.78;2.63;;;410.40;1177.60;;;;;;5089120;28;20021;-63
2021/03/14 07:46:22;;;;;;;4.97;2.63;;;410.40;1177.60;;;;;;5086245;28;20039;-62
2021/03/14 07:48:50;;;;;;;6.07;2.70;;;435.20;1152.00;;;;;;5078016;28;20489;-62
2021/03/14 07:51:18;;;;;;;3.13;2.55;;;;;;;;;;5079799;28;20060;-62
2021/03/14 07:53:45;;;;;;;4.80;2.67;;;;;;;;;;5053944;28;20486;-63
2021/03/14 07:56:11;;;;;;;7.40;2.55;;;435.60;1126.40;;;;;;5071933;28;20029;-62
2021/03/14 07:58:36;;;;;;;3.47;2.20;;;435.50;1280.00;;;;;;5057498;28;20067;-63
2021/03/14 08:01:25;;;;;;;4.57;2.88;;;435.60;1126.40;;;;;;5071961;28;20028;-62
2021/03/14 08:03:52;;;;;;;6.78;3.20;;;435.70;1126.40;;;;;;5071862;28;20024;-62
2021/03/14 08:06:39;;;;;;;5.38;2.42;;;435.80;1126.40;;;;;;5074779;28;20029;-61
2021/03/14 08:09:05;;;;;;;4.90;2.75;;;435.90;1100.80;;;;;;5063203;28;20102;-64
2021/03/14 08:11:30;;;;;;;5.75;3.13;;;436.10;1100.80;;;;;;5077793;28;20024;-62
2021/03/14 08:13:56;;;;;;;5.00;2.60;;;436.10;1100.80;;;;;;5077689;28;20059;-63
2021/03/14 08:16:22;;;;;;;5.32;3.05;;;460.80;1126.40;;;;;;5066871;28;20032;-63
2021/03/14 08:18:52;;;;;;;5.68;3.22;;;461.00;1100.80;;;;;;5056476;28;20021;-60
2021/03/14 08:21:21;;;;;;;5.80;3.50;;;460.90;1100.80;;;;;;5056641;28;20057;-60
2021/03/14 08:23:50;;;;;;;;;;;461.10;1100.80;;;;;;5056853;28;20035;-60
2021/03/14 08:26:16;;;;;;;4.43;2.45;;;461.30;1075.20;;;;;;5056661;28;19991;-62
2021/03/14 08:29:03;;;;;;;6.95;2.38;;;461.30;1075.20;;;;;;5056214;28;20148;-63
2021/03/14 08:31:45;;;;;;;3.97;2.78;;;461.60;1049.60;;;;;;4994830;28;20034;-62
2021/03/14 08:34:40;;;;;;;4.85;2.80;;;461.60;1049.60;;;;;;4993915;28;20034;-63
2021/03/14 08:37:22;;;;;;;5.65;3.25;;;461.70;1049.60;;;;;;4994206;28;20531;-64
2021/03/14 08:39:48;;;;;;;5.30;2.70;;;486.40;1049.60;;;;;;4992774;28;20022;-62
2021/03/14 08:42:14;;;;;;;3.78;2.80;;;486.50;1024.00;;;;;;4993636;28;20054;-64
2021/03/14 08:44:45;;;;;;;6.30;2.97;;;486.70;1024.00;;;;;;4993434;28;20386;-61
2021/03/14 08:47:13;;;;;;;4.75;2.88;;;486.90;998.40;;;;;;4993460;28;20378;-63
2021/03/14 08:49:45;;;;;;;5.35;2.85;;;487.00;998.40;;;;;;4993508;28;20636;-62
2021/03/14 08:52:12;;;;;;;4.85;2.78;;;487.00;972.80;;;;;;5007200;28;20412;-62
2021/03/14 08:54:44;;;;;;;4.38;2.35;;;487.10;972.80;;;;;;5012848;28;20484;-62
2021/03/14 08:57:12;;;;;;;5.28;2.80;;;487.10;947.20;;;;;;5012994;28;20476;-61
2021/03/14 08:59:51;;;;;;;5.13;2.47;;;487.20;947.20;;;;;;5013290;28;20026;-63
2021/03/14 09:02:25;;;;;;;4.60;2.58;;;512.00;947.20;;;;;;5012232;28;20307;-63
2021/03/14 09:04:52;;;;;;;7.47;3.03;;;512.30;921.60;;;;;;5012297;28;20496;-61
2021/03/14 09:07:18;;;;;;;3.40;2.13;;;512.60;921.60;;;;;;5012689;28;20168;-63
2021/03/14 09:09:45;;;;;;;5.55;2.42;;;512.80;896.00;;;;;;5067183;28;20150;-63
2021/03/14 09:12:16;;;;;;;3.58;2.15;;;537.60;896.00;;;;;;5062741;28;20063;-62
2021/03/14 09:14:44;;;;;;;5.47;2.92;;;537.70;896.00;;;;;;5049579;28;20021;-62
2021/03/14 09:17:15;;;;;;;5.00;3.38;;;537.80;896.00;;;;;;5054115;28;20028;-62
2021/03/14 09:19:43;;;;;;;8.05;3.30;;;538.00;896.00;;;;;;5054561;28;20013;-61
2021/03/14 09:22:13;;;;;;;5.07;3.85;;;538.40;947.20;;;;;;5054932;28;20033;-64
2021/03/14 09:24:41;;;;;;;7.22;3.78;;;538.40;921.60;;;;;;5053988;28;20071;-61
2021/03/14 09:27:14;;;;;;;4.28;3.00;;;563.30;896.00;;;;;;5065929;28;20123;-64
2021/03/14 09:29:49;;;;;;;5.22;3.00;;;563.40;870.40;;;;;;5074245;28;20471;-63
2021/03/14 09:32:26;;;;;;;6.95;2.67;;;538.40;819.20;;;;;;5074224;28;20471;-64
2021/03/14 09:35:12;;;;;;;8.07;3.45;;;538.40;844.80;;;;;;5069253;28;20459;-67
2021/03/14 09:37:39;;;;;;;4.70;2.83;;;538.50;844.80;;;;;;5068683;28;20509;-65
2021/03/14 09:40:09;;;;;;;7.38;2.90;;;563.20;870.40;;;;;;5068260;28;20024;-65
2021/03/14 09:42:35;;;;;;;5.70;2.72;;;563.30;870.40;;;;;;5035379;28;20057;-65
2021/03/14 09:45:04;;;;;;;5.13;2.80;;;563.30;844.80;;;;;;5072828;28;20017;-66
2021/03/14 09:47:30;;;;;;;7.78;3.15;;;563.30;870.40;;;;;;5074379;28;20082;-67
2021/03/14 09:50:00;;;;;;;3.88;2.60;;;563.30;844.80;;;;;;5057131;28;20025;-63
2021/03/14 09:52:25;;;;;;;5.43;2.55;;;538.50;844.80;;;;;;5051355;28;20060;-61
2021/03/14 09:54:51;;;;;;;4.78;2.42;;;538.50;819.20;;;;;;5055910;28;20073;-64
2021/03/14 09:57:20;;;;;;;7.38;3.65;;;538.40;819.20;;;;;;5074046;28;20036;-63
2021/03/14 09:59:46;;;;;;;13.18;4.80;;;538.50;870.40;;;;;;5074083;28;20024;-68
2021/03/14 10:02:12;;;;;;;5.07;2.90;;;538.40;870.40;;;;;;5073554;28;20360;-61
2021/03/14 10:04:45;;;;;;;6.10;2.53;;;538.30;844.80;;;;;;5073803;28;20029;-59
2021/03/14 10:07:22;;;;;;;5.28;2.65;;;538.40;844.80;;;;;;5092162;28;20013;-59
2021/03/14 10:09:48;;;;;;;4.03;2.80;;;563.20;844.80;;;;;;5081562;28;20021;-59
2021/03/14 10:12:15;;;;;;;3.63;2.47;;;538.40;819.20;;;;;;5077547;28;20055;-62
2021/03/14 10:14:41;;;;;;;5.68;2.75;;;538.50;844.80;;;;;;5093799;28;20031;-61
2021/03/14 10:17:07;;;;;;;5.90;3.30;;;538.50;844.80;;;;;;5094765;28;20020;-61
2021/03/14 10:19:33;;;;;;;5.82;3.05;;;538.40;844.80;;;;;;5095600;28;20465;-61
2021/03/14 10:21:59;;;;;;;5.75;3.45;;;538.40;844.80;;;;;;5094732;28;20373;-61
2021/03/14 10:24:27;;;;;;;5.72;3.13;;;538.10;844.80;;;;;;5094601;28;20465;-60
2021/03/14 10:26:58;;;;;;;5.50;3.63;;;538.50;844.80;;;;;;5076349;28;20026;-60
2021/03/14 10:29:36;;;;;;;9.35;3.70;;;538.40;844.80;;;;;;5093167;28;20026;-62
2021/03/14 10:32:03;;;;;;;4.95;3.33;;;538.50;844.80;;;;;;5094314;28;20024;-63
2021/03/14 10:34:29;;;;;;;5.28;2.70;;;538.40;819.20;;;;;;5094204;28;20052;-60
2021/03/14 10:36:56;;;;;;;12.32;3.95;;;538.40;844.80;;;;;;5093631;28;20434;-62
2021/03/14 10:39:28;;;;;;;6.35;4.93;;;538.40;844.80;;;;;;5076130;28;20039;-57
2021/03/14 10:41:55;;;;;;;6.30;3.05;;;563.30;844.80;;;;;;5074801;28;20028;-59
2021/03/14 10:44:26;;;;;;;6.13;3.53;;;563.40;844.80;;;;;;5073327;28;20023;-60
2021/03/14 10:46:55;;;;;;;5.57;3.30;;;563.60;819.20;;;;;;5056665;28;20025;-62
2021/03/14 10:49:24;;;;;;;7.35;4.20;;;563.40;844.80;;;;;;5055996;28;20039;-60
2021/03/14 10:51:52;;;;;;;6.85;3.33;;;563.50;844.80;;;;;;5073869;28;20401;-56
2021/03/14 10:54:19;;;;;;;11.68;3.80;;;563.60;844.80;;;;;;5073258;28;20025;-60
2021/03/14 10:56:50;;;;;;;6.15;3.20;;;563.40;844.80;;;;;;5076196;28;20359;-57
2021/03/14 10:59:30;;;;;;;5.30;2.97;;;563.40;844.80;;;;;;5074441;28;20150;-59
2021/03/14 11:02:11;;;;;;;6.05;3.70;;;563.60;819.20;;;;;;5055987;28;20061;-60
2021/03/14 11:04:37;;;;;;;7.15;4.30;;;563.70;844.80;;;;;;5073262;28;20025;-59
2021/03/14 11:07:25;;;;;;;8.85;4.97;;;563.60;844.80;;;;;;5073069;28;20056;-58
2021/03/14 11:09:51;;;;;;;5.68;3.13;;;563.50;844.80;;;;;;5072113;28;20017;-58
2021/03/14 11:12:33;;;;;;;6.18;3.33;;;563.30;844.80;;;;;;5073274;28;20028;-59
2021/03/14 11:14:59;;;;;;;4.95;3.28;;;563.30;844.80;;;;;;5072583;28;20074;-58
2021/03/14 11:17:30;;;;;;;3.60;2.88;;;563.30;844.80;;;;;;5075402;28;20031;-57
2021/03/14 11:19:56;;;;;;;6.28;3.50;;;538.40;844.80;;;;;;5092259;28;20034;-57
2021/03/14 11:22:21;;;;;;;5.00;3.00;;;563.20;844.80;;;;;;5089185;28;20036;-59
2021/03/14 11:24:49;;;;;;;5.30;3.10;;;563.20;844.80;;;;;;5075298;28;20042;-60
2021/03/14 11:27:16;;;;;;;6.18;3.35;;;538.30;844.80;;;;;;5086770;28;20028;-62
2021/03/14 11:29:42;;;;;;;5.53;3.17;;;538.30;844.80;;;;;;5071886;28;20021;-57
2021/03/14 11:32:13;;;;;;;3.55;2.70;;;538.40;844.80;;;;;;5071885;28;20093;-59
2021/03/14 11:34:44;;;;;;;6.65;3.22;;;538.40;844.80;;;;;;5073264;28;20024;-59
2021/03/14 11:37:11;;;;;;;7.65;3.72;;;538.50;844.80;;;;;;5072571;28;20024;-56
2021/03/14 11:39:38;;;;;;;5.65;3.58;;;563.30;844.80;;;;;;5079249;28;20025;-58
2021/03/14 11:42:05;;;;;;;6.65;2.83;;;563.20;870.40;;;;;;5077649;28;20032;-56
2021/03/14 11:44:31;;;;;;;5.60;2.95;;;538.40;844.80;;;;;;5072718;28;20027;-57
2021/03/14 11:46:56;;;;;;;7.85;3.33;;;538.00;870.40;;;;;;5075669;28;20024;-59
2021/03/14 11:49:23;;;;;;;3.60;2.70;;;537.90;870.40;;;;;;5076019;28;20367;-58
2021/03/14 11:51:49;;;;;;;7.88;3.40;;;537.60;896.00;;;;;;5087307;28;20056;-60
2021/03/14 11:54:18;;;;;;;9.38;4.88;;;537.60;921.60;;;;;;5077425;28;20033;-57
2021/03/14 11:56:45;;;;;;;9.35;5.40;;;512.80;972.80;;;;;;5069244;28;20032;-58
2021/03/14 11:59:11;;;;;;;9.70;6.40;;;512.60;998.40;;;;;;5066171;28;20525;-60
2021/03/14 12:01:37;;;;;;;9.90;6.75;;;512.80;1024.00;;;;;;5072813;28;20124;-60
2021/03/14 12:04:03;;;;;;;7.90;6.07;;;512.80;1024.00;;;;;;5068734;28;20028;-60
2021/03/14 12:06:29;;;;;;;12.32;6.50;;;512.90;1024.00;;;;;;5072609;28;20016;-60
2021/03/14 12:08:55;;;;;;;11.57;7.32;;;512.50;1049.60;;;;;;5072252;28;20071;-61
2021/03/14 12:11:20;;;;;;;12.02;7.40;;;512.30;1075.20;;;;;;5071208;28;20056;-60
2021/03/14 12:13:46;;;;;;;14.68;7.45;;;512.30;1100.80;;;;;;5067020;28;20043;-62
2021/03/14 12:16:12;;;;;;;8.20;5.70;;;512.20;1100.80;;;;;;5070730;28;20025;-59
2021/03/14 12:18:38;;;;;;;9.60;6.53;;;512.10;1100.80;;;;;;5071490;28;20083;-61
2021/03/14 12:21:04;;;;;;;8.25;6.47;;;512.10;1100.80;;;;;;5071174;28;20370;-62
2021/03/14 12:23:30;;;;;;;11.80;7.13;;;512.10;1100.80;;;;;;5071928;28;20043;-58
2021/03/14 12:25:56;;;;;;;12.32;7.13;;;512.40;1100.80;;;;;;5071923;28;20032;-59